Terminal Aerodrome Forecast
Issued by NWS

Home | Current Version | Previous Version | Text Only | Print | Product List | Glossary On
Versions: 1 2 3 4 5 6 7 8 9 10 11 12 13 14 15 16 17 18 19 20 21 22 23 24 25 26 27 28 29 30 31 32 33 34 35 36 37 38 39 40 41 42 43 44 45 46 47 48 49 50
000
FTUS45 KBOU 071734
TAFAPA
TAF
KAPA 071734Z 0718/0818 16014KT P6SM SCT050 BKN120
      TEMPO 0718/0720 16015G22KT 5SM HZ
     FM072000 17016KT P6SM VCTS SCT050CB BKN080
      TEMPO 0720/0724 VRB18G28KT 5SM -TSRA BKN050CB
     FM080000 16014KT P6SM VCTS SCT050CB BKN120
     FM080300 18010KT P6SM VCSH SCT050 BKN080
     FM081200 25010KT P6SM SCT030 BKN080
     FM081500 34012KT P6SM VCTS SCT020CB BKN050 OVC080
      TEMPO 0815/0818 5SM -TSRA BKN020CB=

USA.gov is the U.S. government's official web portal to all federal, state and local government web resources and services.